Time;durP1;ratioP1;P1;durP2;ratioP2;P2;SDS_P1;SDS_P2;PMS_P1;PMS_P2;Temp;Humidity;BMP_temperature;BMP_pressure;BME280_temperature;BME280_humidity;BME280_pressure;Samples;Min_cycle;Max_cycle;Signal;HPM_P1;HPM_P2
2023/10/09 00:00:50;;;;;;;;;;;18.30;91.00;;;;;;4038411;29;22188;-54
2023/10/09 00:03:32;;;;;;;;;;;18.30;91.00;;;;;;4037734;29;19938;-55
2023/10/09 00:06:13;;;;;;;;;;;18.30;91.10;;;;;;4037194;29;20295;-54
2023/10/09 00:08:55;;;;;;;;;;;18.30;91.10;;;;;;4034919;29;19974;-52
2023/10/09 00:11:41;;;;;;;;;;;18.30;91.10;;;;;;4041952;29;19966;-54
2023/10/09 00:14:22;;;;;;;;;;;18.30;91.10;;;;;;4040150;29;20031;-53
2023/10/09 00:17:17;;;;;;;;;;;18.30;91.10;;;;;;4034918;29;19974;-52
2023/10/09 00:20:08;;;;;;;;;;;18.20;91.10;;;;;;4041735;29;19991;-54
2023/10/09 00:22:51;;;;;;;;;;;18.30;91.20;;;;;;4040519;29;20009;-54
2023/10/09 00:25:36;;;;;;;;;;;18.30;91.20;;;;;;4036118;29;19934;-55
2023/10/09 00:28:18;;;;;;;;;;;18.20;91.20;;;;;;4034182;29;20781;-54
2023/10/09 00:31:04;;;;;;;;;;;18.20;91.20;;;;;;4035547;29;20272;-52
2023/10/09 00:33:45;;;;;;;;;;;18.20;91.60;;;;;;4041808;29;20686;-50
2023/10/09 00:36:29;;;;;;;;;;;18.30;91.20;;;;;;4026744;29;19939;-54
2023/10/09 00:39:18;;;;;;;;;;;18.20;91.20;;;;;;4036773;29;20083;-54
2023/10/09 00:42:00;;;;;;;;;;;18.20;91.20;;;;;;4024729;29;20037;-53
2023/10/09 00:44:42;;;;;;;;;;;18.30;91.30;;;;;;4029266;29;19955;-55
2023/10/09 00:47:26;;;;;;;;;;;18.20;91.30;;;;;;4038850;29;19938;-55
2023/10/09 00:50:11;;;;;;;;;;;18.20;91.30;;;;;;4025797;29;20010;-55
2023/10/09 00:53:01;;;;;;;;;;;18.20;91.30;;;;;;4027980;29;19939;-54
2023/10/09 00:55:45;;;;;;;;;;;18.20;91.70;;;;;;4034400;29;19934;-52
2023/10/09 00:58:30;;;;;;;;;;;18.20;91.30;;;;;;4029217;29;20346;-54
2023/10/09 01:01:15;;;;;;;;;;;18.20;91.30;;;;;;4027301;29;19939;-55
2023/10/09 01:03:59;;;;;;;;;;;18.20;91.30;;;;;;4036017;29;20018;-52
2023/10/09 01:06:44;;;;;;;;;;;18.20;91.30;;;;;;4022839;29;19935;-53
2023/10/09 01:09:28;;;;;;;;;;;18.20;91.30;;;;;;4023029;29;19938;-52
2023/10/09 01:12:16;;;;;;;;;;;18.20;91.40;;;;;;4038101;29;19935;-56
2023/10/09 01:14:59;;;;;;;;;;;18.20;91.40;;;;;;4036598;29;19982;-56
2023/10/09 01:17:45;;;;;;;;;;;18.20;91.40;;;;;;4040064;29;20049;-55
2023/10/09 01:20:30;;;;;;;;;;;18.20;91.50;;;;;;4022268;29;20405;-55
2023/10/09 01:23:12;;;;;;;;;;;18.20;91.60;;;;;;4040053;29;19947;-54
2023/10/09 01:25:53;;;;;;;;;;;18.20;91.60;;;;;;4036982;29;19939;-54
2023/10/09 01:28:34;;;;;;;;;;;18.20;91.50;;;;;;4035548;29;19939;-55
2023/10/09 01:31:14;;;;;;;;;;;18.20;91.90;;;;;;4040539;29;19935;-55
2023/10/09 01:33:59;;;;;;;;;;;18.20;91.60;;;;;;4038627;29;20291;-52
2023/10/09 01:36:41;;;;;;;;;;;18.20;91.60;;;;;;4028863;29;20003;-56
2023/10/09 01:39:26;;;;;;;;;;;18.20;91.60;;;;;;4034693;29;20073;-53
2023/10/09 01:42:07;;;;;;;;;;;18.20;91.50;;;;;;4031513;29;20414;-55
2023/10/09 01:44:48;;;;;;;;;;;18.20;91.60;;;;;;4024728;29;20315;-55
2023/10/09 01:47:31;;;;;;;;;;;18.20;91.50;;;;;;4035777;29;19934;-53
2023/10/09 01:50:20;;;;;;;;;;;18.20;91.50;;;;;;4040707;29;19935;-56
2023/10/09 01:53:02;;;;;;;;;;;18.20;91.50;;;;;;4037097;29;19935;-53
2023/10/09 01:55:45;;;;;;;;;;;18.20;91.50;;;;;;4038172;29;19982;-53
2023/10/09 01:58:27;;;;;;;;;;;18.20;91.50;;;;;;4024329;29;19938;-52
2023/10/09 02:01:09;;;;;;;;;;;18.20;91.50;;;;;;4022647;29;19986;-56
2023/10/09 02:03:51;;;;;;;;;;;18.20;91.50;;;;;;4040262;29;19934;-51
2023/10/09 02:06:32;;;;;;;;;;;18.20;91.50;;;;;;4036640;29;19939;-53
2023/10/09 02:09:22;;;;;;;;;;;18.20;91.50;;;;;;4018977;29;20103;-55
2023/10/09 02:12:05;;;;;;;;;;;18.20;91.50;;;;;;4019852;29;20552;-51
2023/10/09 02:14:46;;;;;;;;;;;18.20;92.00;;;;;;4012165;29;20261;-52
2023/10/09 02:17:29;;;;;;;;;;;18.20;91.60;;;;;;4022039;29;20276;-53
2023/10/09 02:20:18;;;;;;;;;;;18.20;91.60;;;;;;4023422;29;19939;-55
2023/10/09 02:22:58;;;;;;;;;;;18.20;91.50;;;;;;4014436;29;20064;-51
2023/10/09 02:25:43;;;;;;;;;;;18.20;91.90;;;;;;4027197;29;19938;-50
2023/10/09 02:28:32;;;;;;;;;;;18.20;91.50;;;;;;4023464;29;19943;-52
2023/10/09 02:31:21;;;;;;;;;;;18.20;91.50;;;;;;4023437;29;19939;-52
2023/10/09 02:34:06;;;;;;;;;;;18.20;91.60;;;;;;4010828;29;19935;-51
2023/10/09 02:36:49;;;;;;;;;;;18.20;91.60;;;;;;4009745;29;20339;-51
2023/10/09 02:39:36;;;;;;;;;;;18.20;91.60;;;;;;4027396;29;19978;-53
2023/10/09 02:42:23;;;;;;;;;;;18.20;91.60;;;;;;4025162;29;19994;-52
2023/10/09 02:45:06;;;;;;;;;;;18.20;91.60;;;;;;4016102;29;19954;-55
2023/10/09 02:47:51;;;;;;;;;;;18.20;91.60;;;;;;4021171;29;19939;-56
2023/10/09 02:50:38;;;;;;;;;;;18.20;91.60;;;;;;4027492;29;19935;-53
2023/10/09 02:53:29;;;;;;;;;;;18.20;91.60;;;;;;4016118;29;19979;-55
2023/10/09 02:56:12;;;;;;;;;;;18.20;91.60;;;;;;4004921;29;20015;-53
2023/10/09 02:58:53;;;;;;;;;;;18.20;91.60;;;;;;4011740;29;20432;-53
2023/10/09 03:01:37;;;;;;;;;;;18.10;91.70;;;;;;4020612;29;20646;-52
2023/10/09 03:04:19;;;;;;;;;;;18.10;91.70;;;;;;4007616;29;19992;-56
2023/10/09 03:07:00;;;;;;;;;;;18.10;91.70;;;;;;4024407;29;20067;-53
2023/10/09 03:09:41;;;;;;;;;;;18.20;91.70;;;;;;4015485;29;19935;-53
2023/10/09 03:12:26;;;;;;;;;;;18.10;91.80;;;;;;4021651;29;19934;-55
2023/10/09 03:15:09;;;;;;;;;;;18.10;91.80;;;;;;4021071;29;20073;-55
2023/10/09 03:17:51;;;;;;;;;;;18.10;91.80;;;;;;4026263;29;20027;-55
2023/10/09 03:20:32;;;;;;;;;;;18.10;91.80;;;;;;4019170;29;19935;-55
2023/10/09 03:23:14;;;;;;;;;;;18.10;92.20;;;;;;4021275;29;20045;-56
2023/10/09 03:25:54;;;;;;;;;;;18.10;91.80;;;;;;4001279;29;20036;-56
2023/10/09 03:28:44;;;;;;;;;;;18.10;91.90;;;;;;4026714;29;19934;-56
2023/10/09 03:31:26;;;;;;;;;;;18.10;92.00;;;;;;4022768;29;20367;-55
2023/10/09 03:34:10;;;;;;;;;;;18.10;92.00;;;;;;4016070;29;19935;-53
2023/10/09 03:36:59;;;;;;;;;;;18.20;92.00;;;;;;4022419;29;19935;-55
2023/10/09 03:39:41;;;;;;;;;;;18.20;92.00;;;;;;4026739;29;20064;-54
2023/10/09 03:42:22;;;;;;;;;;;18.20;92.00;;;;;;4025488;29;20291;-53
2023/10/09 03:45:12;;;;;;;;;;;18.10;92.00;;;;;;4018078;29;19938;-51
2023/10/09 03:47:57;;;;;;;;;;;18.10;92.00;;;;;;4023149;29;19935;-52
2023/10/09 03:50:43;;;;;;;;;;;18.10;92.00;;;;;;4019616;29;19938;-51
2023/10/09 03:53:23;;;;;;;;;;;18.10;92.00;;;;;;4018154;29;20434;-54
2023/10/09 03:56:05;;;;;;;;;;;18.10;92.00;;;;;;4023830;29;20296;-52
2023/10/09 03:58:46;;;;;;;;;;;18.10;92.00;;;;;;4011472;29;19938;-53
2023/10/09 04:01:28;;;;;;;;;;;18.10;92.00;;;;;;4019162;29;20407;-52
2023/10/09 04:04:13;;;;;;;;;;;18.10;92.10;;;;;;4025624;29;19939;-56
2023/10/09 04:06:55;;;;;;;;;;;18.10;92.00;;;;;;4014209;29;19991;-54
2023/10/09 04:09:39;;;;;;;;;;;18.10;92.10;;;;;;4041505;29;19978;-53
2023/10/09 04:12:24;;;;;;;;;;;18.10;92.10;;;;;;4023658;29;20381;-52
2023/10/09 04:15:14;;;;;;;;;;;18.10;92.10;;;;;;4041746;29;19934;-52
2023/10/09 04:17:56;;;;;;;;;;;18.10;92.10;;;;;;4041943;29;19986;-54
2023/10/09 04:26:46;;;;;;;;;;;18.10;92.10;;;;;;4039217;29;20423;-52
2023/10/09 04:29:27;;;;;;;;;;;18.20;92.20;;;;;;4039733;29;19934;-52
2023/10/09 04:32:15;;;;;;;;;;;18.10;92.20;;;;;;4035100;29;19960;-51
2023/10/09 04:35:20;;;;;;;;;;;18.10;92.20;;;;;;4038409;29;19934;-54
2023/10/09 04:38:05;;;;;;;;;;;18.10;92.20;;;;;;4016911;29;19936;-53
2023/10/09 04:40:51;;;;;;;;;;;18.10;92.20;;;;;;4039610;29;19978;-54
2023/10/09 04:43:33;;;;;;;;;;;18.10;92.20;;;;;;4038354;29;19935;-51
2023/10/09 04:46:23;;;;;;;;;;;18.10;92.20;;;;;;4036908;29;19966;-55
2023/10/09 04:49:26;;;;;;;;;;;18.10;92.30;;;;;;4041273;29;20022;-55
2023/10/09 04:52:06;;;;;;;;;;;18.20;92.80;;;;;;4028469;29;20011;-56
2023/10/09 04:58:00;;;;;;;;;;;18.20;92.50;;;;;;4037226;29;19934;-54
2023/10/09 05:01:01;;;;;;;;;;;18.20;92.60;;;;;;4044373;29;20574;-53
2023/10/09 05:03:52;;;;;;;;;;;18.20;92.70;;;;;;4037889;29;19939;-52
2023/10/09 05:06:55;;;;;;;;;;;18.20;92.80;;;;;;4040029;29;19944;-50
2023/10/09 05:09:55;;;;;;;;;;;18.20;92.90;;;;;;4037089;29;19943;-51
2023/10/09 05:12:41;;;;;;;;;;;18.20;92.90;;;;;;4038087;29;19939;-55
2023/10/09 05:15:29;;;;;;;;;;;18.20;92.90;;;;;;4041372;29;19997;-55
2023/10/09 05:18:16;;;;;;;;;;;18.20;93.40;;;;;;4035706;29;20543;-52
2023/10/09 05:20:58;;;;;;;;;;;18.20;93.10;;;;;;4035805;29;19979;-53
2023/10/09 05:23:44;;;;;;;;;;;18.20;93.10;;;;;;4041426;29;20351;-54
2023/10/09 05:26:37;;;;;;;;;;;18.20;93.10;;;;;;4035011;29;20276;-54
2023/10/09 05:29:19;;;;;;;;;;;18.20;93.20;;;;;;4038083;29;19938;-55
2023/10/09 05:32:05;;;;;;;;;;;18.20;93.20;;;;;;4036731;29;20090;-53
2023/10/09 05:37:48;;;;;;;;;;;18.20;93.30;;;;;;4033573;29;20007;-51
2023/10/09 05:40:31;;;;;;;;;;;18.20;93.30;;;;;;4040427;29;19938;-52
2023/10/09 05:44:55;;;;;;;;;;;18.20;93.30;;;;;;4037925;29;19933;-50
2023/10/09 05:46:15;;;;;;;;;;;18.20;93.30;;;;;;4030675;29;19935;-51
2023/10/09 05:49:09;;;;;;;;;;;18.20;93.30;;;;;;4020710;29;20427;-51
2023/10/09 05:51:53;;;;;;;;;;;18.20;93.40;;;;;;4023791;29;19939;-51
2023/10/09 06:03:48;;;;;;;;;;;18.30;93.60;;;;;;4037785;29;19934;-51
2023/10/09 06:06:34;;;;;;;;;;;18.30;93.60;;;;;;4043987;29;19935;-50
2023/10/09 06:09:49;;;;;;;;;;;18.30;93.60;;;;;;4043505;29;19938;-52
2023/10/09 06:18:34;;;;;;;;;;;18.30;93.80;;;;;;4037710;29;20011;-50
2023/10/09 06:24:17;;;;;;;;;;;18.30;93.80;;;;;;4028906;29;19995;-51
2023/10/09 06:27:14;;;;;;;;;;;18.20;93.80;;;;;;4042388;29;20036;-52
2023/10/09 06:33:04;;;;;;;;;;;18.30;94.10;;;;;;4041532;29;19999;-48
2023/10/09 06:35:53;;;;;;;;;;;18.40;94.20;;;;;;4040839;29;19939;-52
2023/10/09 06:38:51;;;;;;;;;;;18.40;94.20;;;;;;4028560;29;20019;-48
2023/10/09 06:41:37;;;;;;;;;;;18.40;94.10;;;;;;4038938;29;20055;-48
2023/10/09 06:44:52;;;;;;;;;;;18.40;94.00;;;;;;4039189;29;19943;-48
2023/10/09 06:47:23;;;;;;;;;;;18.40;94.00;;;;;;4038538;29;19938;-52
2023/10/09 06:50:24;;;;;;;;;;;18.40;94.00;;;;;;4036965;29;20294;-51
2023/10/09 06:53:20;;;;;;;;;;;18.40;94.00;;;;;;4036434;29;19934;-48
2023/10/09 06:56:05;;;;;;;;;;;18.40;94.00;;;;;;4041531;29;19938;-48
2023/10/09 06:58:47;;;;;;;;;;;18.40;93.90;;;;;;4043443;29;19935;-51
2023/10/09 07:01:42;;;;;;;;;;;18.30;93.90;;;;;;4039911;29;19994;-49
2023/10/09 07:04:45;;;;;;;;;;;18.40;93.90;;;;;;4041724;29;19935;-49
2023/10/09 07:07:26;;;;;;;;;;;18.40;93.80;;;;;;4038378;29;20313;-49
2023/10/09 07:13:06;;;;;;;;;;;18.40;93.90;;;;;;4022572;29;19953;-49
2023/10/09 07:19:09;;;;;;;;;;;18.30;93.80;;;;;;3999593;29;20386;-52
2023/10/09 07:21:54;;;;;;;;;;;18.30;93.90;;;;;;4014226;29;19935;-51
2023/10/09 07:24:43;;;;;;;;;;;18.30;93.90;;;;;;4026367;29;20400;-51
2023/10/09 07:27:43;;;;;;;;;;;18.30;93.90;;;;;;4025436;29;19991;-53
2023/10/09 07:30:39;;;;;;;;;;;18.30;93.90;;;;;;4025377;29;19943;-52
2023/10/09 07:33:30;;;;;;;;;;;18.30;94.00;;;;;;4023605;29;19934;-51
2023/10/09 07:36:13;;;;;;;;;;;18.30;94.10;;;;;;4024434;29;19935;-50
2023/10/09 07:38:55;;;;;;;;;;;18.30;94.10;;;;;;4026604;29;20027;-50
2023/10/09 07:41:39;;;;;;;;;;;18.30;94.00;;;;;;4027159;29;20584;-49
2023/10/09 07:44:37;;;;;;;;;;;18.40;94.00;;;;;;4023940;29;19983;-48
2023/10/09 07:47:22;;;;;;;;;;;18.30;93.90;;;;;;4024395;29;20067;-48
2023/10/09 07:50:11;;;;;;;;;;;18.30;93.90;;;;;;4021234;29;19998;-50
2023/10/09 07:53:14;;;;;;;;;;;18.30;93.90;;;;;;4022036;29;19943;-47
2023/10/09 07:55:58;;;;;;;;;;;18.30;93.90;;;;;;4024523;29;19959;-50
2023/10/09 07:58:46;;;;;;;;;;;18.30;93.90;;;;;;4020256;29;20000;-50
2023/10/09 08:01:35;;;;;;;;;;;18.40;94.00;;;;;;4026295;29;20023;-49
2023/10/09 08:04:20;;;;;;;;;;;18.30;93.90;;;;;;4025625;29;19935;-50
2023/10/09 08:07:06;;;;;;;;;;;18.30;94.00;;;;;;4025102;29;19991;-48
2023/10/09 08:16:04;;;;;;;;;;;18.40;94.40;;;;;;4022028;29;19947;-53
2023/10/09 08:18:44;;;;;;;;;;;18.40;94.40;;;;;;4026467;29;19935;-50
2023/10/09 08:27:27;;;;;;;;;;;18.40;94.50;;;;;;4136691;27;2079044;-47
2023/10/09 08:29:49;;;;;;;;;;;18.50;94.70;;;;;;4212099;28;19998;-48
2023/10/09 08:32:42;;;;;;;;;;;18.50;94.80;;;;;;4202890;28;19935;-50
2023/10/09 08:35:29;;;;;;;;;;;18.50;94.90;;;;;;4208234;28;19934;-48
2023/10/09 08:38:10;;;;;;;;;;;18.50;94.90;;;;;;4215185;28;19931;-46
2023/10/09 08:40:54;;;;;;;;;;;18.50;94.90;;;;;;4205661;28;19959;-47
2023/10/09 08:43:37;;;;;;;;;;;18.40;95.20;;;;;;4210477;28;19935;-50
2023/10/09 08:46:20;;;;;;;;;;;18.50;94.90;;;;;;4190838;28;19951;-47
2023/10/09 08:49:04;;;;;;;;;;;18.50;94.80;;;;;;4209200;28;19951;-49
2023/10/09 08:51:47;;;;;;;;;;;18.50;94.80;;;;;;4202266;28;19931;-49
2023/10/09 08:54:31;;;;;;;;;;;18.50;94.70;;;;;;4207463;28;20000;-48
2023/10/09 08:57:19;;;;;;;;;;;18.50;94.70;;;;;;4211293;28;19976;-49
2023/10/09 09:00:01;;;;;;;;;;;18.50;94.60;;;;;;4209003;28;19931;-47
2023/10/09 09:02:43;;;;;;;;;;;18.50;94.60;;;;;;4218802;28;20041;-48
2023/10/09 09:05:28;;;;;;;;;;;18.50;94.70;;;;;;4200460;28;19935;-50
2023/10/09 09:08:23;;;;;;;;;;;18.50;94.70;;;;;;4208300;28;20393;-48
2023/10/09 09:11:12;;;;;;;;;;;18.50;94.60;;;;;;4201875;28;19951;-48
2023/10/09 09:14:04;;;;;;;;;;;18.50;94.40;;;;;;4209201;28;19931;-49
2023/10/09 09:16:48;;;;;;;;;;;18.50;94.70;;;;;;4215371;28;20536;-51
2023/10/09 09:19:32;;;;;;;;;;;18.50;94.30;;;;;;4213078;28;19988;-53
2023/10/09 09:22:14;;;;;;;;;;;18.60;94.30;;;;;;4207404;28;19932;-48
2023/10/09 09:25:03;;;;;;;;;;;18.50;94.30;;;;;;4210145;28;19935;-53
2023/10/09 09:27:52;;;;;;;;;;;18.50;94.20;;;;;;4209345;28;19973;-50
2023/10/09 09:30:33;;;;;;;;;;;18.50;94.30;;;;;;4207706;28;20495;-54
2023/10/09 09:33:26;;;;;;;;;;;18.50;94.70;;;;;;4195156;28;19935;-50
2023/10/09 09:36:11;;;;;;;;;;;18.50;94.30;;;;;;4211655;28;20281;-51
2023/10/09 09:38:52;;;;;;;;;;;18.50;94.30;;;;;;4195752;28;19946;-52
2023/10/09 09:41:34;;;;;;;;;;;18.50;94.30;;;;;;4196589;28;19977;-51
2023/10/09 09:44:18;;;;;;;;;;;18.50;94.30;;;;;;4201942;28;20577;-50
2023/10/09 09:47:00;;;;;;;;;;;18.50;94.40;;;;;;4189769;28;20065;-49
2023/10/09 09:49:43;;;;;;;;;;;18.60;94.40;;;;;;4179934;28;20129;-49
2023/10/09 09:52:25;;;;;;;;;;;18.50;94.30;;;;;;4196662;28;19935;-48
2023/10/09 09:55:14;;;;;;;;;;;18.50;94.30;;;;;;4188854;28;20030;-48
2023/10/09 09:57:56;;;;;;;;;;;18.50;94.30;;;;;;4200187;28;20020;-50
2023/10/09 10:00:43;;;;;;;;;;;18.60;94.80;;;;;;4198106;28;19973;-49
2023/10/09 10:03:27;;;;;;;;;;;18.50;94.40;;;;;;4196740;28;19985;-48
2023/10/09 10:06:12;;;;;;;;;;;18.50;94.40;;;;;;4194430;28;19931;-47
2023/10/09 10:08:53;;;;;;;;;;;18.60;94.50;;;;;;4200698;28;19969;-55
2023/10/09 10:11:45;;;;;;;;;;;18.50;94.40;;;;;;4195724;28;19930;-53
2023/10/09 10:14:46;;;;;;;;;;;18.50;94.40;;;;;;4194471;28;21324;-48
2023/10/09 10:17:29;;;;;;;;;;;18.50;94.40;;;;;;4194355;28;19938;-48
2023/10/09 10:23:20;;;;;;;;;;;18.50;94.40;;;;;;4199721;28;19988;-51
2023/10/09 10:26:16;;;;;;;;;;;18.50;94.50;;;;;;4198330;28;19935;-49
2023/10/09 10:29:22;;;;;;;;;;;18.50;94.50;;;;;;4196434;28;19980;-47
2023/10/09 10:32:06;;;;;;;;;;;18.60;94.60;;;;;;4200335;28;19931;-48
2023/10/09 10:34:55;;;;;;;;;;;18.50;94.60;;;;;;4199017;28;19950;-49
2023/10/09 10:37:44;;;;;;;;;;;18.50;94.60;;;;;;4194646;28;19931;-49
2023/10/09 10:40:40;;;;;;;;;;;18.60;94.60;;;;;;4189815;28;19935;-48
2023/10/09 10:43:32;;;;;;;;;;;18.60;94.60;;;;;;4195328;28;19931;-50
2023/10/09 10:46:23;;;;;;;;;;;18.60;94.60;;;;;;4194624;28;19990;-49
2023/10/09 10:49:14;;;;;;;;;;;18.60;94.60;;;;;;4197107;28;19939;-47
2023/10/09 10:52:15;;;;;;;;;;;18.60;94.80;;;;;;4200022;28;20393;-50
2023/10/09 10:55:17;;;;;;;;;;;18.60;94.90;;;;;;4196979;28;19973;-47
2023/10/09 10:58:00;;;;;;;;;;;18.60;94.90;;;;;;4199955;28;19935;-50
2023/10/09 11:03:54;;;;;;;;;;;18.60;94.90;;;;;;4188605;28;20065;-47
2023/10/09 11:06:41;;;;;;;;;;;18.60;94.80;;;;;;4198267;28;19947;-47
2023/10/09 11:09:23;;;;;;;;;;;18.60;94.90;;;;;;4195921;28;19978;-47
2023/10/09 11:12:21;;;;;;;;;;;18.60;95.00;;;;;;4201786;28;20298;-46
2023/10/09 11:15:05;;;;;;;;;;;18.60;95.20;;;;;;4183309;28;19935;-47
2023/10/09 11:17:46;;;;;;;;;;;18.60;95.20;;;;;;4202483;28;19934;-47
2023/10/09 11:20:32;;;;;;;;;;;18.60;95.10;;;;;;4179359;28;20043;-46
2023/10/09 11:23:16;;;;;;;;;;;18.60;95.20;;;;;;4197268;28;20321;-48
2023/10/09 11:26:20;;;;;;;;;;;18.70;95.50;;;;;;4186869;28;19934;-48
2023/10/09 11:29:14;;;;;;;;;;;18.70;95.40;;;;;;4193759;28;19950;-47
2023/10/09 11:32:01;;;;;;;;;;;18.70;95.40;;;;;;4194313;28;19943;-48
2023/10/09 11:34:45;;;;;;;;;;;18.70;95.30;;;;;;4194037;28;19931;-48
2023/10/09 11:37:38;;;;;;;;;;;18.70;95.30;;;;;;4199686;28;19935;-51
2023/10/09 11:40:42;;;;;;;;;;;18.70;95.20;;;;;;4193729;28;19981;-47
2023/10/09 11:43:51;;;;;;;;;;;18.70;95.20;;;;;;4199043;28;19949;-49
2023/10/09 11:46:40;;;;;;;;;;;18.70;95.20;;;;;;4199385;28;20004;-49
2023/10/09 11:49:40;;;;;;;;;;;18.70;95.20;;;;;;4198079;28;19990;-49
2023/10/09 11:52:36;;;;;;;;;;;18.70;95.30;;;;;;4198126;28;19978;-49
2023/10/09 11:55:17;;;;;;;;;;;18.70;95.30;;;;;;4198730;28;19947;-49
2023/10/09 11:57:58;;;;;;;;;;;18.70;95.30;;;;;;4196483;28;20053;-48
2023/10/09 12:00:47;;;;;;;;;;;18.70;95.30;;;;;;4189946;28;19935;-49
2023/10/09 12:03:29;;;;;;;;;;;18.70;95.30;;;;;;4193601;28;19935;-48
2023/10/09 12:06:14;;;;;;;;;;;18.70;95.30;;;;;;4198762;28;19932;-49
2023/10/09 12:08:58;;;;;;;;;;;18.70;95.30;;;;;;4197339;28;19935;-48
2023/10/09 12:11:39;;;;;;;;;;;18.70;95.30;;;;;;4195080;28;19942;-49
2023/10/09 12:14:34;;;;;;;;;;;18.80;95.30;;;;;;4178281;28;20069;-49
2023/10/09 12:17:15;;;;;;;;;;;18.70;95.30;;;;;;4180340;28;19935;-49
2023/10/09 12:19:58;;;;;;;;;;;18.70;95.20;;;;;;4197640;28;20397;-49
2023/10/09 12:22:40;;;;;;;;;;;18.70;95.30;;;;;;4199762;28;19932;-49
2023/10/09 12:25:21;;;;;;;;;;;18.80;95.20;;;;;;4195257;28;19943;-50
2023/10/09 12:28:03;;;;;;;;;;;18.70;95.20;;;;;;4193263;28;19932;-50
2023/10/09 12:30:47;;;;;;;;;;;18.70;95.20;;;;;;4198005;28;20489;-53
2023/10/09 12:33:29;;;;;;;;;;;18.80;95.20;;;;;;4195498;28;19935;-48
2023/10/09 12:36:17;;;;;;;;;;;18.70;95.10;;;;;;4193188;28;19935;-48
2023/10/09 12:39:01;;;;;;;;;;;18.70;95.10;;;;;;4201084;28;19935;-48
2023/10/09 12:41:42;;;;;;;;;;;18.80;95.10;;;;;;4198505;28;19935;-50
2023/10/09 12:44:22;;;;;;;;;;;18.70;95.10;;;;;;4199248;28;20321;-50
2023/10/09 12:47:11;;;;;;;;;;;18.70;95.10;;;;;;4187011;28;19932;-50
2023/10/09 12:49:53;;;;;;;;;;;18.70;95.10;;;;;;4188298;28;20297;-51
2023/10/09 12:52:37;;;;;;;;;;;18.70;95.10;;;;;;4198542;28;19939;-49
2023/10/09 12:55:20;;;;;;;;;;;18.70;95.10;;;;;;4195874;28;20271;-48
2023/10/09 12:58:06;;;;;;;;;;;18.70;95.10;;;;;;4171636;28;20077;-49
2023/10/09 13:00:49;;;;;;;;;;;18.70;95.10;;;;;;4147642;28;19951;-48
2023/10/09 13:03:32;;;;;;;;;;;18.80;95.10;;;;;;4192386;28;19931;-50
2023/10/09 13:06:14;;;;;;;;;;;18.70;95.10;;;;;;4197317;28;20050;-49
2023/10/09 13:08:59;;;;;;;;;;;18.70;95.10;;;;;;4181716;28;20382;-48
2023/10/09 13:11:42;;;;;;;;;;;18.70;95.10;;;;;;4192950;28;19943;-48
2023/10/09 13:14:25;;;;;;;;;;;18.70;95.10;;;;;;4189421;28;20502;-48
2023/10/09 13:17:09;;;;;;;;;;;18.70;95.10;;;;;;4195745;28;20012;-51
2023/10/09 13:19:51;;;;;;;;;;;18.70;95.10;;;;;;4194678;28;19942;-52
2023/10/09 13:22:31;;;;;;;;;;;18.70;95.10;;;;;;4200322;28;19935;-49
2023/10/09 13:25:16;;;;;;;;;;;18.70;95.10;;;;;;4187871;28;19997;-49
2023/10/09 13:28:20;;;;;;;;;;;18.70;95.10;;;;;;4200734;28;19946;-50
2023/10/09 13:31:04;;;;;;;;;;;18.70;95.10;;;;;;4199288;28;19935;-49
2023/10/09 13:33:45;;;;;;;;;;;18.70;95.10;;;;;;4199428;28;20413;-49
2023/10/09 13:36:32;;;;;;;;;;;18.70;95.10;;;;;;4194155;28;20388;-51
2023/10/09 13:39:24;;;;;;;;;;;18.70;95.10;;;;;;4201251;28;19931;-50
2023/10/09 13:42:07;;;;;;;;;;;18.70;95.10;;;;;;4194995;28;20044;-50
2023/10/09 13:44:51;;;;;;;;;;;18.70;95.10;;;;;;4198901;28;19966;-49
2023/10/09 13:47:33;;;;;;;;;;;18.70;95.10;;;;;;4196886;28;19934;-50
2023/10/09 13:50:13;;;;;;;;;;;18.70;95.10;;;;;;4203149;28;19986;-51
2023/10/09 13:52:54;;;;;;;;;;;18.70;95.10;;;;;;4185603;28;19932;-47
2023/10/09 13:55:43;;;;;;;;;;;18.70;95.10;;;;;;4198470;28;19931;-47
2023/10/09 13:58:24;;;;;;;;;;;18.70;95.10;;;;;;4196493;28;19962;-48
2023/10/09 14:01:08;;;;;;;;;;;18.70;95.10;;;;;;4202851;28;19935;-49
2023/10/09 14:03:52;;;;;;;;;;;18.70;95.40;;;;;;4200741;28;20404;-51
2023/10/09 14:06:36;;;;;;;;;;;18.70;95.10;;;;;;4186849;28;20050;-51
2023/10/09 14:09:31;;;;;;;;;;;18.70;95.10;;;;;;4196872;28;19943;-49
2023/10/09 14:12:14;;;;;;;;;;;18.70;95.00;;;;;;4201949;28;19973;-50
2023/10/09 14:14:55;;;;;;;;;;;18.70;95.10;;;;;;4190483;28;19935;-51
2023/10/09 14:17:42;;;;;;;;;;;18.70;95.10;;;;;;4187583;28;19935;-49
2023/10/09 14:20:32;;;;;;;;;;;18.70;95.10;;;;;;4199973;28;19934;-49
2023/10/09 14:23:20;;;;;;;;;;;18.70;95.40;;;;;;4184556;28;19944;-48
2023/10/09 14:26:01;;;;;;;;;;;18.70;95.00;;;;;;4203383;28;19935;-50
2023/10/09 14:28:42;;;;;;;;;;;18.70;95.00;;;;;;4202428;28;20291;-46
2023/10/09 14:31:27;;;;;;;;;;;18.70;94.90;;;;;;4193717;28;20029;-50
2023/10/09 14:34:10;;;;;;;;;;;18.70;94.90;;;;;;4197850;28;20021;-51
2023/10/09 14:36:51;;;;;;;;;;;18.70;94.90;;;;;;4195674;28;19947;-50
2023/10/09 14:39:36;;;;;;;;;;;18.70;94.90;;;;;;4195318;28;19936;-49
2023/10/09 14:42:17;;;;;;;;;;;18.70;94.90;;;;;;4183108;28;19970;-49
2023/10/09 14:44:58;;;;;;;;;;;18.70;94.90;;;;;;4183697;28;19940;-47
2023/10/09 14:47:39;;;;;;;;;;;18.70;94.80;;;;;;4202272;28;19931;-62
2023/10/09 14:50:22;;;;;;;;;;;18.70;94.80;;;;;;4182168;28;19932;-53
2023/10/09 14:53:04;;;;;;;;;;;18.70;94.80;;;;;;4198194;28;19935;-50
2023/10/09 14:55:45;;;;;;;;;;;18.70;94.80;;;;;;4195596;28;20081;-51
2023/10/09 14:58:28;;;;;;;;;;;18.70;94.80;;;;;;4201902;28;19931;-51
2023/10/09 15:01:15;;;;;;;;;;;18.70;94.80;;;;;;4199840;28;20018;-47
2023/10/09 15:03:57;;;;;;;;;;;18.70;94.80;;;;;;4194586;28;20013;-47
2023/10/09 15:06:40;;;;;;;;;;;18.70;94.80;;;;;;4195661;28;20454;-49
2023/10/09 15:09:22;;;;;;;;;;;18.70;94.80;;;;;;4189354;28;19939;-50
2023/10/09 15:12:06;;;;;;;;;;;18.70;94.70;;;;;;4200452;28;19935;-47
2023/10/09 15:14:48;;;;;;;;;;;18.70;94.70;;;;;;4186093;28;19935;-50
2023/10/09 15:17:29;;;;;;;;;;;18.70;94.70;;;;;;4192719;28;20003;-46
2023/10/09 15:20:13;;;;;;;;;;;18.70;94.70;;;;;;4200957;28;19938;-52
2023/10/09 15:22:56;;;;;;;;;;;18.80;94.70;;;;;;4195726;28;19935;-48
2023/10/09 15:25:39;;;;;;;;;;;18.80;94.60;;;;;;4194782;28;20068;-49
2023/10/09 15:28:20;;;;;;;;;;;18.80;94.40;;;;;;4194788;28;19931;-48
2023/10/09 15:31:00;;;;;;;;;;;18.80;94.30;;;;;;4201303;28;19951;-48
2023/10/09 15:33:42;;;;;;;;;;;18.80;94.20;;;;;;4192285;28;19966;-49
2023/10/09 15:36:25;;;;;;;;;;;18.80;94.10;;;;;;4195590;28;19931;-48
2023/10/09 15:39:11;;;;;;;;;;;18.80;94.10;;;;;;4194359;28;19936;-48
2023/10/09 15:41:51;;;;;;;;;;;18.80;94.00;;;;;;4200313;28;19950;-49
2023/10/09 15:44:36;;;;;;;;;;;18.80;93.90;;;;;;4197154;28;20005;-50
2023/10/09 15:47:17;;;;;;;;;;;18.80;93.90;;;;;;4195090;28;20069;-50
2023/10/09 15:49:58;;;;;;;;;;;18.80;93.90;;;;;;4201102;28;19935;-49
2023/10/09 15:52:39;;;;;;;;;;;18.80;94.30;;;;;;4194129;28;20470;-49
2023/10/09 15:55:24;;;;;;;;;;;18.80;93.90;;;;;;4196035;28;19932;-48
2023/10/09 15:58:08;;;;;;;;;;;18.80;93.90;;;;;;4194114;28;19935;-49
2023/10/09 16:00:50;;;;;;;;;;;18.80;93.90;;;;;;4201293;28;19943;-48
2023/10/09 16:03:30;;;;;;;;;;;18.80;93.90;;;;;;4201022;28;20410;-48
2023/10/09 16:06:12;;;;;;;;;;;18.80;93.90;;;;;;4193700;28;19963;-48
2023/10/09 16:08:52;;;;;;;;;;;18.80;93.90;;;;;;4194359;28;20097;-49
2023/10/09 16:11:34;;;;;;;;;;;18.80;93.90;;;;;;4188211;28;20077;-48
2023/10/09 16:14:16;;;;;;;;;;;18.80;94.30;;;;;;4197363;28;20298;-50
2023/10/09 16:16:57;;;;;;;;;;;18.80;93.90;;;;;;4195311;28;19935;-49
2023/10/09 16:19:40;;;;;;;;;;;18.80;93.90;;;;;;4201254;28;19951;-50
2023/10/09 16:22:22;;;;;;;;;;;18.80;94.40;;;;;;4193027;28;19935;-50
2023/10/09 16:25:09;;;;;;;;;;;18.80;93.90;;;;;;4196607;28;20406;-48
2023/10/09 16:27:52;;;;;;;;;;;18.80;94.00;;;;;;4195749;28;19938;-49
2023/10/09 16:30:33;;;;;;;;;;;18.80;94.00;;;;;;4184347;28;19967;-50
2023/10/09 16:33:16;;;;;;;;;;;18.80;94.00;;;;;;4187917;28;20440;-51
2023/10/09 16:35:59;;;;;;;;;;;18.80;94.00;;;;;;4196834;28;19935;-50
2023/10/09 16:38:40;;;;;;;;;;;18.80;94.00;;;;;;4181749;28;19985;-50
2023/10/09 16:41:25;;;;;;;;;;;18.80;94.00;;;;;;4200483;28;19931;-50
2023/10/09 16:44:09;;;;;;;;;;;18.80;94.00;;;;;;4200766;28;20105;-48
2023/10/09 16:46:54;;;;;;;;;;;18.80;94.10;;;;;;4196718;28;19931;-50
2023/10/09 16:49:35;;;;;;;;;;;18.70;94.00;;;;;;4198321;28;19931;-49
2023/10/09 16:52:15;;;;;;;;;;;18.80;94.10;;;;;;4184188;28;20054;-50
2023/10/09 16:54:57;;;;;;;;;;;18.70;94.00;;;;;;4201647;28;20069;-48
2023/10/09 16:57:41;;;;;;;;;;;18.70;94.10;;;;;;4196317;28;19931;-48
2023/10/09 17:00:29;;;;;;;;;;;18.80;94.10;;;;;;4197790;28;20325;-50